Mallard — WDJ6592 — position and weather

sailwx.info

Track history (hours):
 
Tides and Currents Weather Stations Pressure Air Temp Water Temp Dewpoint Dewpoint Depression Visibility Wind Speed Wind Dir Waves Ship Positions

Mallard

Owner: Kirby Inland Marine LP, Houston, TX. More information available from US FCC via Universal Licensing System and Coast Guard Vessel Documentation Center.

Last reported at 2017-Nov-22 20:16 UTC. Time now 2017-Nov-22 20:51 UTC.
Position N 29°44' W 095°03'.

Length 78 m; draft 2.1 m.

Type: . MMSI: 367799320.

Date/timePositionNaut miles runAvg speedWind from/ knotsBaromVisibWave heightAir tempDewpointWater temp
2017-Nov-22 20:16N 29°44' W 095°03'2 5.5
2017-Nov-22 19:52N 29°43' W 095°01'2 5.0
2017-Nov-22 19:27N 29°42' W 094°59'  
2017-Nov-20 00:25N 29°31' W 094°53'2 5.4
2017-Nov-20 00:01N 29°33' W 094°54'3 5.8
2017-Nov-19 23:31N 29°35' W 094°56'3 6.2
2017-Nov-19 23:00N 29°38' W 094°58'3 6.4
2017-Nov-19 22:31N 29°41' W 094°59'4 6.2
2017-Nov-19 21:55N 29°44' W 095°02'  
2017-Nov-17 13:48N 29°44' W 095°03'2 5.1
2017-Nov-17 13:22N 29°43' W 095°01'2 4.7
2017-Nov-17 13:00N 29°42' W 094°60'3 5.6
2017-Nov-17 12:30N 29°39' W 094°58'3 5.9
2017-Nov-17 12:00N 29°37' W 094°57'3 5.8
2017-Nov-17 11:30N 29°34' W 094°55'3 6.0
2017-Nov-17 11:00N 29°32' W 094°53'1 0.0
2017-Nov-16 02:40N 29°31' W 094°53'1 6.5
2017-Nov-16 02:30N 29°32' W 094°54'3 6.4
2017-Nov-16 02:00N 29°34' W 094°56'3 6.4
2017-Nov-16 01:30N 29°37' W 094°58'3 6.5
2017-Nov-16 01:00N 29°40' W 094°59'3 5.5
2017-Nov-16 00:30N 29°42' W 095°01'1 0.3
2017-Nov-15 21:00N 29°43' W 095°01'2 3.3
2017-Nov-15 20:28N 29°42' W 094°60'2 3.4
2017-Nov-15 20:00N 29°41' W 094°59'2 3.4
2017-Nov-15 19:30N 29°39' W 094°58'2 3.5
2017-Nov-15 19:00N 29°37' W 094°57'2 3.1
2017-Nov-15 18:30N 29°37' W 094°59'2 3.0
2017-Nov-15 18:00N 29°37' W 095°01'1 1.1
2017-Nov-15 17:30N 29°37' W 095°01'0 0.1
2017-Nov-15 17:00N 29°37' W 095°02'0 0.0
2017-Nov-15 16:30N 29°37' W 095°02'0 0.0
2017-Nov-15 16:00N 29°37' W 095°02'0 0.0
2017-Nov-15 15:30N 29°37' W 095°02'0 0.0
2017-Nov-15 15:00N 29°37' W 095°02'0 0.0
2017-Nov-15 14:27N 29°37' W 095°02'0 0.0
2017-Nov-15 14:00N 29°37' W 095°02'0 0.0
2017-Nov-15 13:30N 29°37' W 095°02'0 0.0
2017-Nov-15 12:57N 29°37' W 095°02'0 0.0
2017-Nov-15 12:30N 29°37' W 095°02'0 0.0
2017-Nov-15 11:57N 29°37' W 095°02'0 0.0
2017-Nov-15 11:30N 29°37' W 095°02'0 0.0
2017-Nov-15 11:00N 29°37' W 095°02'0 0.0
2017-Nov-15 10:27N 29°37' W 095°02'0 0.0
2017-Nov-15 09:57N 29°37' W 095°02'0 0.0
2017-Nov-15 09:30N 29°37' W 095°02'0 0.0
2017-Nov-15 09:00N 29°37' W 095°02'0 0.0
2017-Nov-15 08:27N 29°37' W 095°02'0 0.0
2017-Nov-15 07:57N 29°37' W 095°02'0 0.0
2017-Nov-15 07:30N 29°37' W 095°02'0 0.0
2017-Nov-15 07:00N 29°37' W 095°02'0 0.0
2017-Nov-15 06:30N 29°37' W 095°02'0 0.0
2017-Nov-15 06:00N 29°37' W 095°02'0 0.0
2017-Nov-15 05:30N 29°37' W 095°02'0 0.0
2017-Nov-15 05:00N 29°37' W 095°02'0 0.1
2017-Nov-15 04:30N 29°37' W 095°01'1 1.1
2017-Nov-15 04:00N 29°37' W 095°01'3 5.7
2017-Nov-15 03:30N 29°37' W 094°58'3 5.7
2017-Nov-15 03:00N 29°40' W 094°58'3 5.9
2017-Nov-15 02:30N 29°42' W 095°01'3 5.0
2017-Nov-15 01:55N 29°44' W 095°03'4 0.7
2017-Nov-14 19:52N 29°44' W 095°08'0 0.0
2017-Nov-14 18:03N 29°44' W 095°08'0 0.0
2017-Nov-14 17:12N 29°44' W 095°08'0 0.0
2017-Nov-14 17:00N 29°44' W 095°08'0 0.0
2017-Nov-14 15:54N 29°44' W 095°08'0 0.0
2017-Nov-14 15:29N 29°44' W 095°08'0 0.0
2017-Nov-14 14:52N 29°44' W 095°08'0 0.0
2017-Nov-14 13:01N 29°44' W 095°08'0 0.0
2017-Nov-14 13:00N 29°44' W 095°08'0 0.0
2017-Nov-14 12:30N 29°44' W 095°08'0 0.0
2017-Nov-14 12:00N 29°44' W 095°08'0 0.0
2017-Nov-14 11:30N 29°44' W 095°08'0 0.0
2017-Nov-14 10:59N 29°44' W 095°08'0 0.0
2017-Nov-14 10:29N 29°44' W 095°08'0 0.1
2017-Nov-14 10:00N 29°44' W 095°08'0 0.1
2017-Nov-14 09:30N 29°44' W 095°08'0 0.0
2017-Nov-14 09:00N 29°44' W 095°08'0 0.0
2017-Nov-14 08:30N 29°44' W 095°08'0 0.0
2017-Nov-14 06:04N 29°44' W 095°08'0 0.0
2017-Nov-14 06:00N 29°44' W 095°08'4 1.1
2017-Nov-14 02:42N 29°46' W 095°05'2 0.8
2017-Nov-13 23:30N 29°44' W 095°03'2 4.9
2017-Nov-13 23:00N 29°43' W 095°01'3 5.4
2017-Nov-13 22:29N 29°41' W 094°59'3 5.8
2017-Nov-13 22:00N 29°38' W 094°58'  
Track history (hours):
 
Tides and Currents Weather Stations Pressure Air Temp Water Temp Dewpoint Dewpoint Depression Visibility Wind Speed Wind Dir Waves Ship Positions

Mallard

Owner: Kirby Inland Marine LP, Houston, TX. More information available from US FCC via Universal Licensing System and Coast Guard Vessel Documentation Center.

Last reported at 2017-Nov-22 20:16 UTC. Time now 2017-Nov-22 20:51 UTC.
Position N 29°44' W 095°03'.

Length 78 m; draft 2.1 m.

Type: . MMSI: 367799320.

Date/timePositionNaut miles runAvg speedWind from/ knotsBaromVisibWave heightAir tempDewpointWater temp
2017-Nov-22 20:16N 29°44' W 095°03'2 5.5
2017-Nov-22 19:52N 29°43' W 095°01'2 5.0
2017-Nov-22 19:27N 29°42' W 094°59'  
2017-Nov-20 00:25N 29°31' W 094°53'2 5.4
2017-Nov-20 00:01N 29°33' W 094°54'3 5.8
2017-Nov-19 23:31N 29°35' W 094°56'3 6.2
2017-Nov-19 23:00N 29°38' W 094°58'3 6.4
2017-Nov-19 22:31N 29°41' W 094°59'4 6.2
2017-Nov-19 21:55N 29°44' W 095°02'  
2017-Nov-17 13:48N 29°44' W 095°03'2 5.1
2017-Nov-17 13:22N 29°43' W 095°01'2 4.7
2017-Nov-17 13:00N 29°42' W 094°60'3 5.6
2017-Nov-17 12:30N 29°39' W 094°58'3 5.9
2017-Nov-17 12:00N 29°37' W 094°57'3 5.8
2017-Nov-17 11:30N 29°34' W 094°55'3 6.0
2017-Nov-17 11:00N 29°32' W 094°53'1 0.0
2017-Nov-16 02:40N 29°31' W 094°53'1 6.5
2017-Nov-16 02:30N 29°32' W 094°54'3 6.4
2017-Nov-16 02:00N 29°34' W 094°56'3 6.4
2017-Nov-16 01:30N 29°37' W 094°58'3 6.5
2017-Nov-16 01:00N 29°40' W 094°59'3 5.5
2017-Nov-16 00:30N 29°42' W 095°01'1 0.3
2017-Nov-15 21:00N 29°43' W 095°01'2 3.3
2017-Nov-15 20:28N 29°42' W 094°60'2 3.4
2017-Nov-15 20:00N 29°41' W 094°59'2 3.4
2017-Nov-15 19:30N 29°39' W 094°58'2 3.5
2017-Nov-15 19:00N 29°37' W 094°57'2 3.1
2017-Nov-15 18:30N 29°37' W 094°59'2 3.0
2017-Nov-15 18:00N 29°37' W 095°01'1 1.1
2017-Nov-15 17:30N 29°37' W 095°01'0 0.1
2017-Nov-15 17:00N 29°37' W 095°02'0 0.0
2017-Nov-15 16:30N 29°37' W 095°02'0 0.0
2017-Nov-15 16:00N 29°37' W 095°02'0 0.0
2017-Nov-15 15:30N 29°37' W 095°02'0 0.0
2017-Nov-15 15:00N 29°37' W 095°02'0 0.0
2017-Nov-15 14:27N 29°37' W 095°02'0 0.0
2017-Nov-15 14:00N 29°37' W 095°02'0 0.0
2017-Nov-15 13:30N 29°37' W 095°02'0 0.0
2017-Nov-15 12:57N 29°37' W 095°02'0 0.0
2017-Nov-15 12:30N 29°37' W 095°02'0 0.0
2017-Nov-15 11:57N 29°37' W 095°02'0 0.0
2017-Nov-15 11:30N 29°37' W 095°02'0 0.0
2017-Nov-15 11:00N 29°37' W 095°02'0 0.0
2017-Nov-15 10:27N 29°37' W 095°02'0 0.0
2017-Nov-15 09:57N 29°37' W 095°02'0 0.0
2017-Nov-15 09:30N 29°37' W 095°02'0 0.0
2017-Nov-15 09:00N 29°37' W 095°02'0 0.0
2017-Nov-15 08:27N 29°37' W 095°02'0 0.0
2017-Nov-15 07:57N 29°37' W 095°02'0 0.0
2017-Nov-15 07:30N 29°37' W 095°02'0 0.0
2017-Nov-15 07:00N 29°37' W 095°02'0 0.0
2017-Nov-15 06:30N 29°37' W 095°02'0 0.0
2017-Nov-15 06:00N 29°37' W 095°02'0 0.0
2017-Nov-15 05:30N 29°37' W 095°02'0 0.0
2017-Nov-15 05:00N 29°37' W 095°02'0 0.1
2017-Nov-15 04:30N 29°37' W 095°01'1 1.1
2017-Nov-15 04:00N 29°37' W 095°01'3 5.7
2017-Nov-15 03:30N 29°37' W 094°58'3 5.7
2017-Nov-15 03:00N 29°40' W 094°58'3 5.9
2017-Nov-15 02:30N 29°42' W 095°01'3 5.0
2017-Nov-15 01:55N 29°44' W 095°03'4 0.7
2017-Nov-14 19:52N 29°44' W 095°08'0 0.0
2017-Nov-14 18:03N 29°44' W 095°08'0 0.0
2017-Nov-14 17:12N 29°44' W 095°08'0 0.0
2017-Nov-14 17:00N 29°44' W 095°08'0 0.0
2017-Nov-14 15:54N 29°44' W 095°08'0 0.0
2017-Nov-14 15:29N 29°44' W 095°08'0 0.0
2017-Nov-14 14:52N 29°44' W 095°08'0 0.0
2017-Nov-14 13:01N 29°44' W 095°08'0 0.0
2017-Nov-14 13:00N 29°44' W 095°08'0 0.0
2017-Nov-14 12:30N 29°44' W 095°08'0 0.0
2017-Nov-14 12:00N 29°44' W 095°08'0 0.0
2017-Nov-14 11:30N 29°44' W 095°08'0 0.0
2017-Nov-14 10:59N 29°44' W 095°08'0 0.0
2017-Nov-14 10:29N 29°44' W 095°08'0 0.1
2017-Nov-14 10:00N 29°44' W 095°08'0 0.1
2017-Nov-14 09:30N 29°44' W 095°08'0 0.0
2017-Nov-14 09:00N 29°44' W 095°08'0 0.0
2017-Nov-14 08:30N 29°44' W 095°08'0 0.0
2017-Nov-14 06:04N 29°44' W 095°08'0 0.0
2017-Nov-14 06:00N 29°44' W 095°08'4 1.1
2017-Nov-14 02:42N 29°46' W 095°05'2 0.8
2017-Nov-13 23:30N 29°44' W 095°03'2 4.9
2017-Nov-13 23:00N 29°43' W 095°01'3 5.4
2017-Nov-13 22:29N 29°41' W 094°59'3 5.8
2017-Nov-13 22:00N 29°38' W 094°58'  

Dump ship's entire track history